NO-0070 weather

Gulli Airstrip
Nes, Akershus, Norway

Public forecast

Using degrees Celsius for public forecast. Weather courtesy of forecast.io.

METAR (pilot weather report)

Closest report is Oslo Gardermoen Airport, 11.1 nm (20.6 km) WNW. Retrieved 2019/05/21 08:20 UTC (2 minutes ago):

ENGM 210820Z 02007KT 9999 FEW013 BKN015 16/13 Q1012 TEMPO BKN013

TAF (pilot weather forecast)

Closest forecast is Oslo Gardermoen Airport, 11.1 nm (20.6 km) WNW. Retrieved 2019/05/21 06:57 UTC (1 hour ago):

TAF ENGM 210500Z 2106/2206 02008KT 9999 SCT015 BKN030 TEMPO 2114/2122 4000 TSRA BKN012 SCT025CB TEMPO 2122/2206 2000 BR BKN003